ラルナカ の空港の天気 - METARとTAF

ラルナカ国際空港 ( LCLK / LCA ) - キプロス ラルナカ
飛行場実況気象(Metar)
観測時間08/04 22:00 EEST (08/04 19:00 UTC)
風向・風速東北東 3m/s
視程10km以上
天気現象
なし
気温28℃
湿度79%
気圧1003hPa
METARLCLK 041900Z 06005KT 340V130 CAVOK 28/24 Q1003 NOSIG
過去の天気等 Google飛行場航空写真 Wunderground天気予報

過去48時間のMETAR

飛行場予報(TAF)
発表時間: 8/04 20:30 EEST (8/04 17:30 UTC)
予報対象時間: 4日21時 EEST ~ 5日21時 EEST
風向・風速南西 5m/s
視程10km以上
少しの雲 雲底高度 760m
4日22時 EEST ~ 5日1時 EEST に徐々に
風向・風速北西 4m/s
5日12時 EEST ~ 5日15時 EEST に徐々に
風向・風速南南西 8m/s
TAF LCLK 041730Z 0418/0518 22010KT 9999 FEW025
BECMG 0419/0422 31007KT
BECMG 0509/0512 21016KT